sensor_id;sensor_type;location;lat;lon;timestamp;P1;durP1;ratioP1;P2;durP2;ratioP2
46921;SDS011;44039;48.336;10.454;2022-09-09T00:00:47;87.05;;;82.85;;
46921;SDS011;44039;48.336;10.454;2022-09-09T00:03:47;86.85;;;82.95;;
46921;SDS011;44039;48.336;10.454;2022-09-09T00:06:46;82.72;;;78.90;;
46921;SDS011;44039;48.336;10.454;2022-09-09T00:09:59;83.88;;;79.95;;
46921;SDS011;44039;48.336;10.454;2022-09-09T00:16:19;83.30;;;79.47;;
46921;SDS011;44039;48.336;10.454;2022-09-09T00:19:22;86.63;;;82.60;;
46921;SDS011;44039;48.336;10.454;2022-09-09T00:22:17;83.90;;;80.10;;
46921;SDS011;44039;48.336;10.454;2022-09-09T00:25:21;84.15;;;80.15;;
46921;SDS011;44039;48.336;10.454;2022-09-09T00:28:22;84.72;;;80.78;;
46921;SDS011;44039;48.336;10.454;2022-09-09T00:31:13;84.68;;;80.78;;
46921;SDS011;44039;48.336;10.454;2022-09-09T00:36:59;83.73;;;79.77;;
46921;SDS011;44039;48.336;10.454;2022-09-09T00:39:46;84.32;;;80.57;;
46921;SDS011;44039;48.336;10.454;2022-09-09T00:42:41;83.30;;;79.45;;
46921;SDS011;44039;48.336;10.454;2022-09-09T00:51:46;83.95;;;80.13;;
46921;SDS011;44039;48.336;10.454;2022-09-09T00:57:35;82.32;;;78.60;;
46921;SDS011;44039;48.336;10.454;2022-09-09T01:00:24;81.32;;;77.57;;
46921;SDS011;44039;48.336;10.454;2022-09-09T01:06:22;82.88;;;78.85;;
46921;SDS011;44039;48.336;10.454;2022-09-09T01:09:27;83.03;;;78.95;;
46921;SDS011;44039;48.336;10.454;2022-09-09T01:12:26;80.47;;;76.57;;
46921;SDS011;44039;48.336;10.454;2022-09-09T01:15:27;80.07;;;76.57;;
46921;SDS011;44039;48.336;10.454;2022-09-09T01:18:17;83.95;;;79.72;;
46921;SDS011;44039;48.336;10.454;2022-09-09T01:27:01;81.15;;;77.15;;
46921;SDS011;44039;48.336;10.454;2022-09-09T01:29:50;82.43;;;78.63;;
46921;SDS011;44039;48.336;10.454;2022-09-09T01:32:39;80.50;;;76.78;;
46921;SDS011;44039;48.336;10.454;2022-09-09T01:38:41;79.53;;;75.82;;
46921;SDS011;44039;48.336;10.454;2022-09-09T01:41:28;79.45;;;75.68;;
46921;SDS011;44039;48.336;10.454;2022-09-09T01:44:15;80.28;;;76.57;;
46921;SDS011;44039;48.336;10.454;2022-09-09T01:47:04;80.45;;;76.82;;
46921;SDS011;44039;48.336;10.454;2022-09-09T01:49:52;82.35;;;78.28;;
46921;SDS011;44039;48.336;10.454;2022-09-09T01:52:39;80.32;;;76.43;;
46921;SDS011;44039;48.336;10.454;2022-09-09T01:55:48;87.57;;;82.47;;
46921;SDS011;44039;48.336;10.454;2022-09-09T01:59:04;83.07;;;78.85;;
46921;SDS011;44039;48.336;10.454;2022-09-09T02:05:08;81.82;;;78.10;;
46921;SDS011;44039;48.336;10.454;2022-09-09T02:08:07;83.35;;;79.55;;
46921;SDS011;44039;48.336;10.454;2022-09-09T02:11:03;82.57;;;78.45;;
46921;SDS011;44039;48.336;10.454;2022-09-09T02:13:54;84.00;;;79.90;;
46921;SDS011;44039;48.336;10.454;2022-09-09T02:19:47;81.18;;;77.35;;
46921;SDS011;44039;48.336;10.454;2022-09-09T02:22:38;82.82;;;78.95;;
46921;SDS011;44039;48.336;10.454;2022-09-09T02:25:29;83.00;;;78.35;;
46921;SDS011;44039;48.336;10.454;2022-09-09T02:28:16;80.75;;;76.95;;
46921;SDS011;44039;48.336;10.454;2022-09-09T02:31:05;79.47;;;75.78;;
46921;SDS011;44039;48.336;10.454;2022-09-09T02:33:56;82.43;;;78.63;;
46921;SDS011;44039;48.336;10.454;2022-09-09T02:36:46;82.05;;;78.18;;
46921;SDS011;44039;48.336;10.454;2022-09-09T02:39:34;83.03;;;78.90;;
46921;SDS011;44039;48.336;10.454;2022-09-09T02:42:22;80.60;;;76.78;;
46921;SDS011;44039;48.336;10.454;2022-09-09T02:45:11;84.22;;;80.10;;
46921;SDS011;44039;48.336;10.454;2022-09-09T02:48:03;80.53;;;76.90;;
46921;SDS011;44039;48.336;10.454;2022-09-09T02:51:03;84.68;;;80.43;;
46921;SDS011;44039;48.336;10.454;2022-09-09T02:54:17;81.60;;;77.80;;
46921;SDS011;44039;48.336;10.454;2022-09-09T02:57:14;81.43;;;77.57;;
46921;SDS011;44039;48.336;10.454;2022-09-09T03:00:05;81.45;;;77.57;;
46921;SDS011;44039;48.336;10.454;2022-09-09T03:02:53;77.60;;;73.72;;
46921;SDS011;44039;48.336;10.454;2022-09-09T03:05:41;81.47;;;77.43;;
46921;SDS011;44039;48.336;10.454;2022-09-09T03:08:29;81.72;;;77.75;;
46921;SDS011;44039;48.336;10.454;2022-09-09T03:11:16;81.35;;;77.43;;
46921;SDS011;44039;48.336;10.454;2022-09-09T03:14:04;82.47;;;78.40;;
46921;SDS011;44039;48.336;10.454;2022-09-09T03:16:52;79.95;;;76.28;;
46921;SDS011;44039;48.336;10.454;2022-09-09T03:19:39;78.97;;;75.13;;
46921;SDS011;44039;48.336;10.454;2022-09-09T03:22:26;77.43;;;73.78;;
46921;SDS011;44039;48.336;10.454;2022-09-09T03:25:13;79.95;;;75.72;;
46921;SDS011;44039;48.336;10.454;2022-09-09T03:28:00;80.13;;;76.18;;
46921;SDS011;44039;48.336;10.454;2022-09-09T03:30:48;81.32;;;77.53;;
46921;SDS011;44039;48.336;10.454;2022-09-09T03:33:38;76.40;;;72.93;;
46921;SDS011;44039;48.336;10.454;2022-09-09T03:36:27;80.50;;;76.70;;
46921;SDS011;44039;48.336;10.454;2022-09-09T03:39:14;83.10;;;78.60;;
46921;SDS011;44039;48.336;10.454;2022-09-09T03:42:02;79.03;;;75.00;;
46921;SDS011;44039;48.336;10.454;2022-09-09T03:44:52;79.03;;;75.38;;
46921;SDS011;44039;48.336;10.454;2022-09-09T03:47:39;77.03;;;73.30;;
46921;SDS011;44039;48.336;10.454;2022-09-09T03:50:26;77.55;;;73.80;;
46921;SDS011;44039;48.336;10.454;2022-09-09T03:53:13;78.53;;;74.53;;
46921;SDS011;44039;48.336;10.454;2022-09-09T03:56:01;75.70;;;72.10;;
46921;SDS011;44039;48.336;10.454;2022-09-09T03:58:49;74.50;;;71.10;;
46921;SDS011;44039;48.336;10.454;2022-09-09T04:01:36;75.20;;;71.63;;
46921;SDS011;44039;48.336;10.454;2022-09-09T04:04:23;73.90;;;70.35;;
46921;SDS011;44039;48.336;10.454;2022-09-09T04:07:10;73.50;;;69.90;;
46921;SDS011;44039;48.336;10.454;2022-09-09T04:09:58;72.65;;;69.07;;
46921;SDS011;44039;48.336;10.454;2022-09-09T04:12:45;73.80;;;69.95;;
46921;SDS011;44039;48.336;10.454;2022-09-09T04:15:35;72.03;;;68.72;;
46921;SDS011;44039;48.336;10.454;2022-09-09T04:18:23;72.75;;;68.90;;
46921;SDS011;44039;48.336;10.454;2022-09-09T04:21:11;74.47;;;70.78;;
46921;SDS011;44039;48.336;10.454;2022-09-09T04:23:58;74.45;;;70.82;;
46921;SDS011;44039;48.336;10.454;2022-09-09T04:26:46;72.45;;;69.03;;
46921;SDS011;44039;48.336;10.454;2022-09-09T04:29:33;78.38;;;74.13;;
46921;SDS011;44039;48.336;10.454;2022-09-09T04:32:21;75.35;;;71.55;;
46921;SDS011;44039;48.336;10.454;2022-09-09T04:35:08;72.82;;;69.30;;
46921;SDS011;44039;48.336;10.454;2022-09-09T04:37:55;79.72;;;75.40;;
46921;SDS011;44039;48.336;10.454;2022-09-09T04:40:50;81.07;;;77.00;;
46921;SDS011;44039;48.336;10.454;2022-09-09T04:43:38;78.40;;;74.28;;
46921;SDS011;44039;48.336;10.454;2022-09-09T04:46:25;76.75;;;72.78;;
46921;SDS011;44039;48.336;10.454;2022-09-09T04:49:13;78.47;;;74.20;;
46921;SDS011;44039;48.336;10.454;2022-09-09T04:52:01;77.40;;;73.60;;
46921;SDS011;44039;48.336;10.454;2022-09-09T04:54:49;79.80;;;76.10;;
46921;SDS011;44039;48.336;10.454;2022-09-09T04:57:36;81.82;;;77.93;;
46921;SDS011;44039;48.336;10.454;2022-09-09T05:00:23;80.80;;;77.00;;
46921;SDS011;44039;48.336;10.454;2022-09-09T05:03:11;82.85;;;79.05;;
46921;SDS011;44039;48.336;10.454;2022-09-09T05:06:03;87.15;;;82.95;;
46921;SDS011;44039;48.336;10.454;2022-09-09T05:08:51;80.70;;;76.68;;
46921;SDS011;44039;48.336;10.454;2022-09-09T05:11:38;81.38;;;77.40;;
46921;SDS011;44039;48.336;10.454;2022-09-09T05:14:25;86.40;;;82.15;;
46921;SDS011;44039;48.336;10.454;2022-09-09T05:17:13;86.30;;;82.15;;
46921;SDS011;44039;48.336;10.454;2022-09-09T05:20:00;88.13;;;83.82;;
46921;SDS011;44039;48.336;10.454;2022-09-09T05:22:55;86.60;;;82.60;;
46921;SDS011;44039;48.336;10.454;2022-09-09T05:25:43;86.65;;;81.85;;
46921;SDS011;44039;48.336;10.454;2022-09-09T05:28:30;89.97;;;85.75;;
46921;SDS011;44039;48.336;10.454;2022-09-09T05:31:18;84.57;;;80.57;;
46921;SDS011;44039;48.336;10.454;2022-09-09T05:34:05;82.80;;;79.00;;
46921;SDS011;44039;48.336;10.454;2022-09-09T05:36:52;89.05;;;84.80;;
46921;SDS011;44039;48.336;10.454;2022-09-09T05:39:40;90.35;;;85.43;;
46921;SDS011;44039;48.336;10.454;2022-09-09T05:42:30;89.65;;;85.70;;
46921;SDS011;44039;48.336;10.454;2022-09-09T05:45:18;91.13;;;86.88;;
46921;SDS011;44039;48.336;10.454;2022-09-09T05:48:06;90.32;;;86.22;;
46921;SDS011;44039;48.336;10.454;2022-09-09T05:50:54;94.30;;;89.05;;
46921;SDS011;44039;48.336;10.454;2022-09-09T05:53:41;94.35;;;89.20;;
46921;SDS011;44039;48.336;10.454;2022-09-09T05:56:29;91.03;;;86.93;;
46921;SDS011;44039;48.336;10.454;2022-09-09T05:59:16;92.43;;;88.13;;
46921;SDS011;44039;48.336;10.454;2022-09-09T06:02:05;93.35;;;89.00;;
46921;SDS011;44039;48.336;10.454;2022-09-09T06:04:52;93.22;;;89.15;;
46921;SDS011;44039;48.336;10.454;2022-09-09T06:07:44;97.60;;;93.00;;
46921;SDS011;44039;48.336;10.454;2022-09-09T06:10:31;99.65;;;95.15;;
46921;SDS011;44039;48.336;10.454;2022-09-09T06:13:18;97.43;;;93.18;;
46921;SDS011;44039;48.336;10.454;2022-09-09T06:16:08;95.88;;;91.68;;
46921;SDS011;44039;48.336;10.454;2022-09-09T06:18:58;97.20;;;92.70;;
46921;SDS011;44039;48.336;10.454;2022-09-09T06:21:46;96.47;;;91.95;;
46921;SDS011;44039;48.336;10.454;2022-09-09T06:24:34;97.68;;;93.38;;
46921;SDS011;44039;48.336;10.454;2022-09-09T06:27:21;95.07;;;91.00;;
46921;SDS011;44039;48.336;10.454;2022-09-09T06:30:08;93.18;;;89.10;;
46921;SDS011;44039;48.336;10.454;2022-09-09T06:32:56;91.43;;;87.25;;
46921;SDS011;44039;48.336;10.454;2022-09-09T06:35:51;91.10;;;86.85;;
46921;SDS011;44039;48.336;10.454;2022-09-09T06:38:39;94.40;;;89.30;;
46921;SDS011;44039;48.336;10.454;2022-09-09T06:41:28;90.75;;;86.45;;
46921;SDS011;44039;48.336;10.454;2022-09-09T06:44:16;93.85;;;89.53;;
46921;SDS011;44039;48.336;10.454;2022-09-09T06:47:04;97.18;;;92.68;;
46921;SDS011;44039;48.336;10.454;2022-09-09T06:49:51;92.50;;;88.25;;
46921;SDS011;44039;48.336;10.454;2022-09-09T06:52:39;94.32;;;90.10;;
46921;SDS011;44039;48.336;10.454;2022-09-09T06:55:26;97.50;;;93.00;;
46921;SDS011;44039;48.336;10.454;2022-09-09T06:58:13;95.05;;;90.50;;
46921;SDS011;44039;48.336;10.454;2022-09-09T07:01:03;94.35;;;89.85;;
46921;SDS011;44039;48.336;10.454;2022-09-09T07:03:54;90.55;;;86.45;;
46921;SDS011;44039;48.336;10.454;2022-09-09T07:06:43;94.13;;;89.75;;
46921;SDS011;44039;48.336;10.454;2022-09-09T07:09:32;92.10;;;88.10;;
46921;SDS011;44039;48.336;10.454;2022-09-09T07:12:19;91.13;;;87.07;;
46921;SDS011;44039;48.336;10.454;2022-09-09T07:15:06;94.63;;;89.32;;
46921;SDS011;44039;48.336;10.454;2022-09-09T07:17:54;90.43;;;86.35;;
46921;SDS011;44039;48.336;10.454;2022-09-09T07:20:41;95.28;;;91.05;;
46921;SDS011;44039;48.336;10.454;2022-09-09T07:23:28;95.60;;;91.28;;
46921;SDS011;44039;48.336;10.454;2022-09-09T07:26:22;99.00;;;94.47;;
46921;SDS011;44039;48.336;10.454;2022-09-09T07:29:11;97.10;;;92.65;;
46921;SDS011;44039;48.336;10.454;2022-09-09T07:32:06;98.10;;;93.72;;
46921;SDS011;44039;48.336;10.454;2022-09-09T07:34:53;97.93;;;93.72;;
46921;SDS011;44039;48.336;10.454;2022-09-09T07:37:40;99.18;;;94.78;;
46921;SDS011;44039;48.336;10.454;2022-09-09T07:40:27;95.20;;;91.38;;
46921;SDS011;44039;48.336;10.454;2022-09-09T07:43:15;97.68;;;93.47;;
46921;SDS011;44039;48.336;10.454;2022-09-09T07:46:05;98.43;;;94.22;;
46921;SDS011;44039;48.336;10.454;2022-09-09T07:48:54;101.13;;;96.30;;
46921;SDS011;44039;48.336;10.454;2022-09-09T07:51:43;102.88;;;98.55;;
46921;SDS011;44039;48.336;10.454;2022-09-09T07:54:32;113.80;;;108.90;;
46921;SDS011;44039;48.336;10.454;2022-09-09T07:57:19;120.25;;;115.15;;
46921;SDS011;44039;48.336;10.454;2022-09-09T08:00:06;145.88;;;140.18;;
46921;SDS011;44039;48.336;10.454;2022-09-09T08:02:54;139.40;;;133.98;;
46921;SDS011;44039;48.336;10.454;2022-09-09T08:05:41;134.18;;;128.98;;
46921;SDS011;44039;48.336;10.454;2022-09-09T08:08:30;127.47;;;122.57;;
46921;SDS011;44039;48.336;10.454;2022-09-09T08:11:17;131.45;;;126.10;;
46921;SDS011;44039;48.336;10.454;2022-09-09T08:14:05;126.20;;;121.10;;
46921;SDS011;44039;48.336;10.454;2022-09-09T08:16:54;134.90;;;129.25;;
46921;SDS011;44039;48.336;10.454;2022-09-09T08:19:41;135.80;;;130.25;;
46921;SDS011;44039;48.336;10.454;2022-09-09T08:22:28;133.48;;;128.15;;
46921;SDS011;44039;48.336;10.454;2022-09-09T08:25:15;135.98;;;130.70;;
46921;SDS011;44039;48.336;10.454;2022-09-09T08:28:02;134.23;;;129.02;;
46921;SDS011;44039;48.336;10.454;2022-09-09T08:30:50;143.07;;;137.40;;
46921;SDS011;44039;48.336;10.454;2022-09-09T08:33:37;151.95;;;145.82;;
46921;SDS011;44039;48.336;10.454;2022-09-09T08:36:26;153.80;;;147.70;;
46921;SDS011;44039;48.336;10.454;2022-09-09T08:39:16;148.95;;;142.77;;
46921;SDS011;44039;48.336;10.454;2022-09-09T08:42:21;141.63;;;136.18;;
46921;SDS011;44039;48.336;10.454;2022-09-09T08:45:35;137.18;;;131.60;;
46921;SDS011;44039;48.336;10.454;2022-09-09T08:48:43;135.25;;;129.80;;
46921;SDS011;44039;48.336;10.454;2022-09-09T08:51:43;134.93;;;129.43;;
46921;SDS011;44039;48.336;10.454;2022-09-09T08:54:33;134.77;;;129.18;;
46921;SDS011;44039;48.336;10.454;2022-09-09T08:57:38;136.77;;;131.48;;
46921;SDS011;44039;48.336;10.454;2022-09-09T09:00:27;136.75;;;131.23;;
46921;SDS011;44039;48.336;10.454;2022-09-09T09:06:50;132.05;;;126.75;;
46921;SDS011;44039;48.336;10.454;2022-09-09T09:13:20;130.98;;;125.38;;
46921;SDS011;44039;48.336;10.454;2022-09-09T09:19:25;132.38;;;126.38;;
46921;SDS011;44039;48.336;10.454;2022-09-09T09:22:26;131.15;;;125.75;;
46921;SDS011;44039;48.336;10.454;2022-09-09T09:25:23;131.40;;;126.10;;
46921;SDS011;44039;48.336;10.454;2022-09-09T09:28:23;133.27;;;127.82;;
46921;SDS011;44039;48.336;10.454;2022-09-09T09:31:12;138.77;;;133.30;;
46921;SDS011;44039;48.336;10.454;2022-09-09T09:34:00;148.27;;;142.07;;
46921;SDS011;44039;48.336;10.454;2022-09-09T09:36:54;159.30;;;153.00;;
46921;SDS011;44039;48.336;10.454;2022-09-09T09:39:44;156.75;;;150.70;;
46921;SDS011;44039;48.336;10.454;2022-09-09T09:42:54;155.45;;;149.25;;
46921;SDS011;44039;48.336;10.454;2022-09-09T09:45:47;158.45;;;152.35;;
46921;SDS011;44039;48.336;10.454;2022-09-09T09:51:46;161.90;;;155.80;;
46921;SDS011;44039;48.336;10.454;2022-09-09T09:54:34;163.75;;;157.35;;
46921;SDS011;44039;48.336;10.454;2022-09-09T09:57:28;160.23;;;154.13;;
46921;SDS011;44039;48.336;10.454;2022-09-09T10:00:19;154.70;;;148.63;;
46921;SDS011;44039;48.336;10.454;2022-09-09T10:03:50;155.25;;;149.23;;
46921;SDS011;44039;48.336;10.454;2022-09-09T10:06:34;158.32;;;152.15;;
46921;SDS011;44039;48.336;10.454;2022-09-09T10:12:33;153.63;;;147.65;;
46921;SDS011;44039;48.336;10.454;2022-09-09T10:15:44;151.70;;;145.52;;
46921;SDS011;44039;48.336;10.454;2022-09-09T10:40:23;142.00;;;136.35;;
46921;SDS011;44039;48.336;10.454;2022-09-09T10:46:09;141.10;;;135.50;;
46921;SDS011;44039;48.336;10.454;2022-09-09T10:55:48;150.43;;;144.55;;
46921;SDS011;44039;48.336;10.454;2022-09-09T10:58:54;159.55;;;153.45;;
46921;SDS011;44039;48.336;10.454;2022-09-09T11:01:44;172.38;;;165.27;;
46921;SDS011;44039;48.336;10.454;2022-09-09T11:07:42;171.70;;;165.43;;
46921;SDS011;44039;48.336;10.454;2022-09-09T11:13:49;202.15;;;195.07;;
46921;SDS011;44039;48.336;10.454;2022-09-09T11:16:47;194.45;;;187.55;;
46921;SDS011;44039;48.336;10.454;2022-09-09T11:19:44;201.50;;;194.48;;
46921;SDS011;44039;48.336;10.454;2022-09-09T11:25:48;193.45;;;186.55;;
46921;SDS011;44039;48.336;10.454;2022-09-09T11:28:55;191.35;;;184.48;;
46921;SDS011;44039;48.336;10.454;2022-09-09T11:41:12;212.18;;;205.07;;
46921;SDS011;44039;48.336;10.454;2022-09-09T11:44:17;225.25;;;217.77;;
46921;SDS011;44039;48.336;10.454;2022-09-09T11:47:29;213.05;;;205.95;;
46921;SDS011;44039;48.336;10.454;2022-09-09T11:53:06;200.20;;;193.23;;
46921;SDS011;44039;48.336;10.454;2022-09-09T11:56:11;194.77;;;187.68;;
46921;SDS011;44039;48.336;10.454;2022-09-09T12:01:54;188.95;;;182.15;;
46921;SDS011;44039;48.336;10.454;2022-09-09T12:07:41;213.93;;;206.70;;
46921;SDS011;44039;48.336;10.454;2022-09-09T12:10:52;228.23;;;220.35;;
46921;SDS011;44039;48.336;10.454;2022-09-09T12:13:51;236.57;;;228.77;;
46921;SDS011;44039;48.336;10.454;2022-09-09T12:16:39;233.65;;;225.75;;
46921;SDS011;44039;48.336;10.454;2022-09-09T12:19:26;224.63;;;216.13;;
46921;SDS011;44039;48.336;10.454;2022-09-09T12:22:26;222.55;;;215.07;;
46921;SDS011;44039;48.336;10.454;2022-09-09T12:31:48;215.95;;;208.38;;
46921;SDS011;44039;48.336;10.454;2022-09-09T12:40:34;202.77;;;195.80;;
46921;SDS011;44039;48.336;10.454;2022-09-09T12:43:24;188.38;;;181.68;;
46921;SDS011;44039;48.336;10.454;2022-09-09T12:46:17;174.85;;;168.27;;
46921;SDS011;44039;48.336;10.454;2022-09-09T12:49:29;169.40;;;163.15;;
46921;SDS011;44039;48.336;10.454;2022-09-09T12:52:24;189.10;;;182.23;;
46921;SDS011;44039;48.336;10.454;2022-09-09T12:55:18;210.07;;;202.77;;
46921;SDS011;44039;48.336;10.454;2022-09-09T12:58:11;192.63;;;185.82;;
46921;SDS011;44039;48.336;10.454;2022-09-09T13:01:04;181.55;;;175.25;;
46921;SDS011;44039;48.336;10.454;2022-09-09T13:03:52;168.00;;;161.57;;
46921;SDS011;44039;48.336;10.454;2022-09-09T13:06:40;159.68;;;153.02;;
46921;SDS011;44039;48.336;10.454;2022-09-09T13:09:26;155.95;;;149.02;;
46921;SDS011;44039;48.336;10.454;2022-09-09T13:12:20;145.60;;;140.10;;
46921;SDS011;44039;48.336;10.454;2022-09-09T13:15:11;145.48;;;139.63;;
46921;SDS011;44039;48.336;10.454;2022-09-09T13:18:10;141.95;;;136.27;;
46921;SDS011;44039;48.336;10.454;2022-09-09T13:20:59;144.40;;;138.63;;
46921;SDS011;44039;48.336;10.454;2022-09-09T13:23:50;138.60;;;132.75;;
46921;SDS011;44039;48.336;10.454;2022-09-09T13:26:38;126.93;;;121.65;;
46921;SDS011;44039;48.336;10.454;2022-09-09T13:29:26;120.35;;;114.97;;
46921;SDS011;44039;48.336;10.454;2022-09-09T13:32:16;117.53;;;112.63;;
46921;SDS011;44039;48.336;10.454;2022-09-09T13:35:04;115.15;;;110.45;;
46921;SDS011;44039;48.336;10.454;2022-09-09T13:38:10;119.35;;;114.47;;
46921;SDS011;44039;48.336;10.454;2022-09-09T13:41:00;138.98;;;133.40;;
46921;SDS011;44039;48.336;10.454;2022-09-09T13:43:51;141.77;;;136.43;;
46921;SDS011;44039;48.336;10.454;2022-09-09T13:46:39;152.10;;;146.00;;
46921;SDS011;44039;48.336;10.454;2022-09-09T13:49:28;191.35;;;183.23;;
46921;SDS011;44039;48.336;10.454;2022-09-09T13:52:17;189.75;;;183.10;;
46921;SDS011;44039;48.336;10.454;2022-09-09T13:55:05;207.77;;;200.23;;
46921;SDS011;44039;48.336;10.454;2022-09-09T14:00:44;209.25;;;201.95;;
46921;SDS011;44039;48.336;10.454;2022-09-09T14:03:32;220.18;;;212.70;;
46921;SDS011;44039;48.336;10.454;2022-09-09T14:06:20;217.80;;;210.43;;
46921;SDS011;44039;48.336;10.454;2022-09-09T14:09:11;217.32;;;209.43;;
46921;SDS011;44039;48.336;10.454;2022-09-09T14:12:00;221.50;;;213.90;;
46921;SDS011;44039;48.336;10.454;2022-09-09T14:14:47;214.55;;;207.27;;
46921;SDS011;44039;48.336;10.454;2022-09-09T14:17:33;211.50;;;204.50;;
46921;SDS011;44039;48.336;10.454;2022-09-09T14:20:22;211.18;;;204.02;;
46921;SDS011;44039;48.336;10.454;2022-09-09T14:23:10;211.00;;;203.80;;
46921;SDS011;44039;48.336;10.454;2022-09-09T14:25:59;216.30;;;208.98;;
46921;SDS011;44039;48.336;10.454;2022-09-09T14:28:46;216.80;;;209.35;;
46921;SDS011;44039;48.336;10.454;2022-09-09T14:31:42;211.43;;;204.43;;
46921;SDS011;44039;48.336;10.454;2022-09-09T14:34:29;212.35;;;204.70;;
46921;SDS011;44039;48.336;10.454;2022-09-09T14:37:17;218.65;;;211.05;;
46921;SDS011;44039;48.336;10.454;2022-09-09T14:40:04;214.75;;;207.45;;
46921;SDS011;44039;48.336;10.454;2022-09-09T14:42:52;216.27;;;208.82;;
46921;SDS011;44039;48.336;10.454;2022-09-09T14:45:39;214.35;;;206.90;;
46921;SDS011;44039;48.336;10.454;2022-09-09T14:48:26;208.60;;;201.50;;
46921;SDS011;44039;48.336;10.454;2022-09-09T14:51:17;211.45;;;204.15;;
46921;SDS011;44039;48.336;10.454;2022-09-09T14:54:08;211.07;;;203.77;;
46921;SDS011;44039;48.336;10.454;2022-09-09T14:56:55;211.77;;;204.50;;
46921;SDS011;44039;48.336;10.454;2022-09-09T14:59:43;209.57;;;202.07;;
46921;SDS011;44039;48.336;10.454;2022-09-09T15:02:30;206.82;;;199.73;;
46921;SDS011;44039;48.336;10.454;2022-09-09T15:05:18;202.45;;;195.65;;
46921;SDS011;44039;48.336;10.454;2022-09-09T15:08:05;190.60;;;183.80;;
46921;SDS011;44039;48.336;10.454;2022-09-09T15:10:58;185.73;;;179.10;;
46921;SDS011;44039;48.336;10.454;2022-09-09T15:13:46;184.30;;;177.55;;
46921;SDS011;44039;48.336;10.454;2022-09-09T15:16:36;187.73;;;180.95;;
46921;SDS011;44039;48.336;10.454;2022-09-09T15:19:24;199.15;;;191.85;;
46921;SDS011;44039;48.336;10.454;2022-09-09T15:22:11;178.85;;;172.52;;
46921;SDS011;44039;48.336;10.454;2022-09-09T15:24:59;188.60;;;181.80;;
46921;SDS011;44039;48.336;10.454;2022-09-09T15:27:46;175.90;;;169.65;;
46921;SDS011;44039;48.336;10.454;2022-09-09T15:30:33;168.95;;;162.55;;
46921;SDS011;44039;48.336;10.454;2022-09-09T15:33:20;157.70;;;151.68;;
46921;SDS011;44039;48.336;10.454;2022-09-09T15:36:21;152.60;;;146.80;;
46921;SDS011;44039;48.336;10.454;2022-09-09T15:39:11;149.45;;;143.65;;
46921;SDS011;44039;48.336;10.454;2022-09-09T15:42:02;146.27;;;140.57;;
46921;SDS011;44039;48.336;10.454;2022-09-09T15:44:49;144.75;;;138.85;;
46921;SDS011;44039;48.336;10.454;2022-09-09T15:47:36;144.93;;;139.32;;
46921;SDS011;44039;48.336;10.454;2022-09-09T15:50:23;143.32;;;137.63;;
46921;SDS011;44039;48.336;10.454;2022-09-09T15:53:10;142.65;;;136.95;;
46921;SDS011;44039;48.336;10.454;2022-09-09T15:55:58;144.55;;;138.70;;
46921;SDS011;44039;48.336;10.454;2022-09-09T15:58:45;143.70;;;138.00;;
46921;SDS011;44039;48.336;10.454;2022-09-09T16:01:32;143.18;;;137.57;;
46921;SDS011;44039;48.336;10.454;2022-09-09T16:04:20;141.20;;;135.82;;
46921;SDS011;44039;48.336;10.454;2022-09-09T16:07:12;142.65;;;137.10;;
46921;SDS011;44039;48.336;10.454;2022-09-09T16:10:00;144.52;;;138.88;;
46921;SDS011;44039;48.336;10.454;2022-09-09T16:12:47;143.23;;;137.77;;
46921;SDS011;44039;48.336;10.454;2022-09-09T16:15:35;145.43;;;139.93;;
46921;SDS011;44039;48.336;10.454;2022-09-09T16:18:22;141.30;;;135.95;;
46921;SDS011;44039;48.336;10.454;2022-09-09T16:21:12;137.35;;;131.95;;
46921;SDS011;44039;48.336;10.454;2022-09-09T16:24:04;136.82;;;131.45;;
46921;SDS011;44039;48.336;10.454;2022-09-09T16:26:53;135.90;;;130.48;;
46921;SDS011;44039;48.336;10.454;2022-09-09T16:29:41;139.93;;;133.98;;
46921;SDS011;44039;48.336;10.454;2022-09-09T16:32:28;138.10;;;132.82;;
46921;SDS011;44039;48.336;10.454;2022-09-09T16:35:15;137.68;;;131.95;;
46921;SDS011;44039;48.336;10.454;2022-09-09T16:38:02;136.00;;;130.68;;
46921;SDS011;44039;48.336;10.454;2022-09-09T16:40:49;133.57;;;128.18;;
46921;SDS011;44039;48.336;10.454;2022-09-09T16:43:37;130.15;;;125.13;;
46921;SDS011;44039;48.336;10.454;2022-09-09T16:46:25;133.18;;;127.80;;
46921;SDS011;44039;48.336;10.454;2022-09-09T16:49:14;133.40;;;128.00;;
46921;SDS011;44039;48.336;10.454;2022-09-09T16:52:02;131.27;;;125.53;;
46921;SDS011;44039;48.336;10.454;2022-09-09T16:54:49;134.27;;;128.27;;
46921;SDS011;44039;48.336;10.454;2022-09-09T16:57:36;130.00;;;125.00;;
46921;SDS011;44039;48.336;10.454;2022-09-09T17:00:23;127.47;;;122.30;;
46921;SDS011;44039;48.336;10.454;2022-09-09T17:03:13;127.00;;;121.90;;
46921;SDS011;44039;48.336;10.454;2022-09-09T17:06:00;127.78;;;122.57;;
46921;SDS011;44039;48.336;10.454;2022-09-09T17:08:54;126.82;;;121.82;;
46921;SDS011;44039;48.336;10.454;2022-09-09T17:11:46;124.30;;;119.25;;
46921;SDS011;44039;48.336;10.454;2022-09-09T17:14:33;130.48;;;125.15;;
46921;SDS011;44039;48.336;10.454;2022-09-09T17:17:20;128.18;;;123.03;;
46921;SDS011;44039;48.336;10.454;2022-09-09T17:20:18;129.57;;;124.22;;
46921;SDS011;44039;48.336;10.454;2022-09-09T17:23:08;126.70;;;121.63;;
46921;SDS011;44039;48.336;10.454;2022-09-09T17:25:56;123.78;;;118.93;;
46921;SDS011;44039;48.336;10.454;2022-09-09T17:28:44;120.05;;;114.85;;
46921;SDS011;44039;48.336;10.454;2022-09-09T17:31:32;113.53;;;108.72;;
46921;SDS011;44039;48.336;10.454;2022-09-09T17:34:20;109.80;;;105.13;;
46921;SDS011;44039;48.336;10.454;2022-09-09T17:37:07;106.65;;;102.15;;
46921;SDS011;44039;48.336;10.454;2022-09-09T17:39:55;102.60;;;97.60;;
46921;SDS011;44039;48.336;10.454;2022-09-09T17:42:42;93.28;;;89.07;;
46921;SDS011;44039;48.336;10.454;2022-09-09T17:45:29;91.43;;;87.28;;
46921;SDS011;44039;48.336;10.454;2022-09-09T17:48:16;89.65;;;85.55;;
46921;SDS011;44039;48.336;10.454;2022-09-09T17:51:04;87.10;;;83.00;;
46921;SDS011;44039;48.336;10.454;2022-09-09T17:53:55;86.63;;;82.82;;
46921;SDS011;44039;48.336;10.454;2022-09-09T17:56:46;87.85;;;83.60;;
46921;SDS011;44039;48.336;10.454;2022-09-09T17:59:34;86.95;;;82.80;;
46921;SDS011;44039;48.336;10.454;2022-09-09T18:02:21;85.18;;;81.25;;
46921;SDS011;44039;48.336;10.454;2022-09-09T18:05:08;83.00;;;79.10;;
46921;SDS011;44039;48.336;10.454;2022-09-09T18:07:56;81.30;;;77.65;;
46921;SDS011;44039;48.336;10.454;2022-09-09T18:10:51;84.07;;;80.20;;
46921;SDS011;44039;48.336;10.454;2022-09-09T18:13:41;80.40;;;76.60;;